CheckWX is a tool to help pilots better visualize weather data.  It is not intended as a substitute for an official pre-flight weather briefing.

06:10:00 UTC

KHZR METAR
False River Regional Airport
New Roads, Louisiana, USA
Current

54 mins ago

KHZR 240516Z AUTO 33006KT 10SM OVC010 11/10 A3003 RMK AO2
Observed
Jan-24 @ 05:16 UTC
Wind
  • 330° at 6 KTS
Visibility
10 SM
Flight Rules
MVFR
Cloud Levels
  • Overcast at 1,000' AGL
Temperature
11°C / 52°F
Dewpoint
10°C / 50°F
Humidity
94%
Altimeter
30.03" Hg
Pressure
1016.92 hPa
Previous

2 hours ago

KHZR 240438Z AUTO 34005KT 10SM OVC008 11/11 A3002 RMK AO2
Observed
Jan-24 @ 04:38 UTC
Wind
  • 340° at 5 KTS
Visibility
10 SM
Flight Rules
IFR
Cloud Levels
  • Overcast at 800' AGL
Temperature
11°C / 52°F
Dewpoint
11°C / 52°F
Humidity
100%
Altimeter
30.02" Hg
Pressure
1016.62 hPa
Previous

2 hours ago

KHZR 240416Z AUTO 34007KT 10SM OVC008 12/11 A3002 RMK AO2
Observed
Jan-24 @ 04:16 UTC
Wind
  • 340° at 7 KTS
Visibility
10 SM
Flight Rules
IFR
Cloud Levels
  • Overcast at 800' AGL
Temperature
12°C / 54°F
Dewpoint
11°C / 52°F
Humidity
94%
Altimeter
30.02" Hg
Pressure
1016.62 hPa